Gold Point, Nevada
Current Conditions -  °F | °C
As of 6:56 PM on Wednesday 22 Oct 2014 (Local Time) from KTPH Reporting Station
Clear Clear  
Wind Chill: 60°   Ceiling: Unl
Heat Index: 60°   Visibility: 10mi
Dew Point: 14°   Wind: 5mph
Humidity: 16%   Direction: 190°S
Pressure: 30.14"   Gusts: NA
Location:  37.7558°N, 117.435°W
Report Text: KTPH 230156Z AUTO 19004KT 10SM CLR 16/M10 A3014 RMK AO2 SLP180 T01561100
Loading
Personal Weather Stations






























Interactive Weather Map
Tropical Storm Tracking
New forecast layout! Learn more

10-Day Weather Forecast

Advertisements
Track Severe Weather on mobile